sensor_id;sensor_type;location;lat;lon;timestamp;temperature;humidity
68026;SHT31;54819;48.030;14.710;2023-01-15T00:01:52;6.12;72.39
68026;SHT31;54819;48.030;14.710;2023-01-15T00:04:19;6.01;72.70
68026;SHT31;54819;48.030;14.710;2023-01-15T00:06:45;5.87;73.30
68026;SHT31;54819;48.030;14.710;2023-01-15T00:09:13;5.76;74.36
68026;SHT31;54819;48.030;14.710;2023-01-15T00:11:41;5.68;74.50
68026;SHT31;54819;48.030;14.710;2023-01-15T00:14:08;5.64;74.33
68026;SHT31;54819;48.030;14.710;2023-01-15T00:16:35;5.60;74.13
68026;SHT31;54819;48.030;14.710;2023-01-15T00:19:01;5.61;73.89
68026;SHT31;54819;48.030;14.710;2023-01-15T00:21:30;5.60;74.07
68026;SHT31;54819;48.030;14.710;2023-01-15T00:23:57;5.56;74.19
68026;SHT31;54819;48.030;14.710;2023-01-15T00:26:43;5.53;74.62
68026;SHT31;54819;48.030;14.710;2023-01-15T00:29:28;5.49;74.62
68026;SHT31;54819;48.030;14.710;2023-01-15T00:31:58;5.47;74.59
68026;SHT31;54819;48.030;14.710;2023-01-15T00:34:28;5.47;74.51
68026;SHT31;54819;48.030;14.710;2023-01-15T00:36:56;5.49;74.15
68026;SHT31;54819;48.030;14.710;2023-01-15T00:39:24;5.49;74.05
68026;SHT31;54819;48.030;14.710;2023-01-15T00:41:52;5.50;74.20
68026;SHT31;54819;48.030;14.710;2023-01-15T00:44:19;5.51;74.55
68026;SHT31;54819;48.030;14.710;2023-01-15T00:46:47;5.51;74.74
68026;SHT31;54819;48.030;14.710;2023-01-15T00:49:13;5.51;74.46
68026;SHT31;54819;48.030;14.710;2023-01-15T00:51:40;5.50;74.59
68026;SHT31;54819;48.030;14.710;2023-01-15T00:54:07;5.50;74.58
68026;SHT31;54819;48.030;14.710;2023-01-15T00:56:34;5.49;74.67
68026;SHT31;54819;48.030;14.710;2023-01-15T00:59:02;5.46;74.81
68026;SHT31;54819;48.030;14.710;2023-01-15T01:01:30;5.45;74.53
68026;SHT31;54819;48.030;14.710;2023-01-15T01:03:57;5.41;74.44
68026;SHT31;54819;48.030;14.710;2023-01-15T01:06:24;5.36;74.86
68026;SHT31;54819;48.030;14.710;2023-01-15T01:08:51;5.36;74.53
68026;SHT31;54819;48.030;14.710;2023-01-15T01:11:19;5.33;74.83
68026;SHT31;54819;48.030;14.710;2023-01-15T01:13:52;5.32;75.12
68026;SHT31;54819;48.030;14.710;2023-01-15T01:16:24;5.30;75.05
68026;SHT31;54819;48.030;14.710;2023-01-15T01:19:04;5.28;75.02
68026;SHT31;54819;48.030;14.710;2023-01-15T01:21:35;5.26;75.00
68026;SHT31;54819;48.030;14.710;2023-01-15T01:24:03;5.24;74.65
68026;SHT31;54819;48.030;14.710;2023-01-15T01:26:31;5.23;74.58
68026;SHT31;54819;48.030;14.710;2023-01-15T01:28:58;5.20;74.97
68026;SHT31;54819;48.030;14.710;2023-01-15T01:31:25;5.12;75.52
68026;SHT31;54819;48.030;14.710;2023-01-15T01:33:53;5.15;75.00
68026;SHT31;54819;48.030;14.710;2023-01-15T01:36:26;5.16;75.02
68026;SHT31;54819;48.030;14.710;2023-01-15T01:38:54;5.17;75.17
68026;SHT31;54819;48.030;14.710;2023-01-15T01:41:22;5.18;75.07
68026;SHT31;54819;48.030;14.710;2023-01-15T01:43:59;5.20;75.17
68026;SHT31;54819;48.030;14.710;2023-01-15T01:46:29;5.24;75.09
68026;SHT31;54819;48.030;14.710;2023-01-15T01:49:02;5.27;75.09
68026;SHT31;54819;48.030;14.710;2023-01-15T01:51:36;5.30;75.03
68026;SHT31;54819;48.030;14.710;2023-01-15T01:54:10;5.29;75.33
68026;SHT31;54819;48.030;14.710;2023-01-15T01:56:39;5.29;75.11
68026;SHT31;54819;48.030;14.710;2023-01-15T01:59:07;5.32;74.88
68026;SHT31;54819;48.030;14.710;2023-01-15T02:01:34;5.33;74.95
68026;SHT31;54819;48.030;14.710;2023-01-15T02:04:02;5.35;74.28
68026;SHT31;54819;48.030;14.710;2023-01-15T02:06:32;5.35;73.34
68026;SHT31;54819;48.030;14.710;2023-01-15T02:09:00;5.37;72.82
68026;SHT31;54819;48.030;14.710;2023-01-15T02:11:27;5.39;72.52
68026;SHT31;54819;48.030;14.710;2023-01-15T02:14:08;5.45;71.57
68026;SHT31;54819;48.030;14.710;2023-01-15T02:16:45;5.54;70.05
68026;SHT31;54819;48.030;14.710;2023-01-15T02:27:41;5.46;71.92
68026;SHT31;54819;48.030;14.710;2023-01-15T02:30:37;5.44;71.84
68026;SHT31;54819;48.030;14.710;2023-01-15T02:33:10;5.41;71.92
68026;SHT31;54819;48.030;14.710;2023-01-15T02:35:44;5.36;71.99
68026;SHT31;54819;48.030;14.710;2023-01-15T02:38:14;5.33;72.23
68026;SHT31;54819;48.030;14.710;2023-01-15T02:40:44;5.32;72.36
68026;SHT31;54819;48.030;14.710;2023-01-15T02:43:13;5.30;72.47
68026;SHT31;54819;48.030;14.710;2023-01-15T02:45:43;5.25;72.66
68026;SHT31;54819;48.030;14.710;2023-01-15T02:48:15;5.19;72.86
68026;SHT31;54819;48.030;14.710;2023-01-15T02:50:51;5.14;72.91
68026;SHT31;54819;48.030;14.710;2023-01-15T02:53:23;5.07;73.36
68026;SHT31;54819;48.030;14.710;2023-01-15T02:55:54;5.04;73.48
68026;SHT31;54819;48.030;14.710;2023-01-15T02:58:29;5.02;73.47
68026;SHT31;54819;48.030;14.710;2023-01-15T03:01:01;5.02;73.15
68026;SHT31;54819;48.030;14.710;2023-01-15T03:03:38;4.99;73.30
68026;SHT31;54819;48.030;14.710;2023-01-15T03:06:20;4.98;73.25
68026;SHT31;54819;48.030;14.710;2023-01-15T03:08:56;4.96;73.16
68026;SHT31;54819;48.030;14.710;2023-01-15T03:11:23;4.95;73.14
68026;SHT31;54819;48.030;14.710;2023-01-15T03:16:38;4.86;74.12
68026;SHT31;54819;48.030;14.710;2023-01-15T03:24:54;4.84;73.73
68026;SHT31;54819;48.030;14.710;2023-01-15T03:27:26;4.83;73.66
68026;SHT31;54819;48.030;14.710;2023-01-15T03:30:03;4.83;73.62
68026;SHT31;54819;48.030;14.710;2023-01-15T03:32:37;4.82;73.76
68026;SHT31;54819;48.030;14.710;2023-01-15T03:35:05;4.82;73.79
68026;SHT31;54819;48.030;14.710;2023-01-15T03:37:40;4.82;74.04
68026;SHT31;54819;48.030;14.710;2023-01-15T03:40:07;4.83;74.16
68026;SHT31;54819;48.030;14.710;2023-01-15T03:43:09;4.83;74.30
68026;SHT31;54819;48.030;14.710;2023-01-15T03:45:50;4.79;74.92
68026;SHT31;54819;48.030;14.710;2023-01-15T03:48:24;4.81;74.50
68026;SHT31;54819;48.030;14.710;2023-01-15T03:51:07;4.82;74.12
68026;SHT31;54819;48.030;14.710;2023-01-15T03:53:40;4.82;74.16
68026;SHT31;54819;48.030;14.710;2023-01-15T03:56:17;4.82;74.26
68026;SHT31;54819;48.030;14.710;2023-01-15T03:58:56;4.81;74.60
68026;SHT31;54819;48.030;14.710;2023-01-15T04:01:44;4.85;74.62
68026;SHT31;54819;48.030;14.710;2023-01-15T04:04:14;4.90;74.55
68026;SHT31;54819;48.030;14.710;2023-01-15T04:06:43;4.93;74.53
68026;SHT31;54819;48.030;14.710;2023-01-15T04:09:11;4.96;74.66
68026;SHT31;54819;48.030;14.710;2023-01-15T04:11:41;5.05;74.70
68026;SHT31;54819;48.030;14.710;2023-01-15T04:14:09;4.97;75.10
68026;SHT31;54819;48.030;14.710;2023-01-15T04:16:42;5.02;74.77
68026;SHT31;54819;48.030;14.710;2023-01-15T04:19:11;5.06;74.58
68026;SHT31;54819;48.030;14.710;2023-01-15T04:21:44;5.12;74.53
68026;SHT31;54819;48.030;14.710;2023-01-15T04:24:11;5.12;74.49
68026;SHT31;54819;48.030;14.710;2023-01-15T04:26:38;5.17;74.43
68026;SHT31;54819;48.030;14.710;2023-01-15T04:29:04;5.18;74.76
68026;SHT31;54819;48.030;14.710;2023-01-15T04:31:31;5.25;74.37
68026;SHT31;54819;48.030;14.710;2023-01-15T04:33:58;5.27;74.20
68026;SHT31;54819;48.030;14.710;2023-01-15T04:36:25;5.27;74.32
68026;SHT31;54819;48.030;14.710;2023-01-15T04:38:52;5.29;74.29
68026;SHT31;54819;48.030;14.710;2023-01-15T04:41:20;5.31;74.32
68026;SHT31;54819;48.030;14.710;2023-01-15T04:44:05;5.31;74.33
68026;SHT31;54819;48.030;14.710;2023-01-15T04:46:50;5.32;74.57
68026;SHT31;54819;48.030;14.710;2023-01-15T04:49:17;5.30;74.62
68026;SHT31;54819;48.030;14.710;2023-01-15T04:51:43;5.26;75.27
68026;SHT31;54819;48.030;14.710;2023-01-15T04:54:11;5.21;75.18
68026;SHT31;54819;48.030;14.710;2023-01-15T04:56:41;5.18;74.75
68026;SHT31;54819;48.030;14.710;2023-01-15T04:59:09;5.16;75.06
68026;SHT31;54819;48.030;14.710;2023-01-15T05:01:37;5.16;75.07
68026;SHT31;54819;48.030;14.710;2023-01-15T05:04:04;5.13;75.34
68026;SHT31;54819;48.030;14.710;2023-01-15T05:06:32;5.12;75.46
68026;SHT31;54819;48.030;14.710;2023-01-15T05:08:59;5.13;75.58
68026;SHT31;54819;48.030;14.710;2023-01-15T05:11:26;5.11;75.82
68026;SHT31;54819;48.030;14.710;2023-01-15T05:13:53;5.10;75.56
68026;SHT31;54819;48.030;14.710;2023-01-15T05:16:21;5.09;75.98
68026;SHT31;54819;48.030;14.710;2023-01-15T05:18:51;5.10;76.10
68026;SHT31;54819;48.030;14.710;2023-01-15T05:21:21;5.11;76.10
68026;SHT31;54819;48.030;14.710;2023-01-15T05:23:51;5.11;76.36
68026;SHT31;54819;48.030;14.710;2023-01-15T05:26:19;5.11;76.14
68026;SHT31;54819;48.030;14.710;2023-01-15T05:28:47;5.09;76.67
68026;SHT31;54819;48.030;14.710;2023-01-15T05:31:15;5.08;76.95
68026;SHT31;54819;48.030;14.710;2023-01-15T05:33:44;5.07;77.49
68026;SHT31;54819;48.030;14.710;2023-01-15T05:36:13;5.06;77.18
68026;SHT31;54819;48.030;14.710;2023-01-15T05:38:42;5.04;76.92
68026;SHT31;54819;48.030;14.710;2023-01-15T05:41:10;5.04;77.50
68026;SHT31;54819;48.030;14.710;2023-01-15T05:43:59;5.01;77.97
68026;SHT31;54819;48.030;14.710;2023-01-15T05:46:30;5.02;77.37
68026;SHT31;54819;48.030;14.710;2023-01-15T05:48:59;4.97;78.72
68026;SHT31;54819;48.030;14.710;2023-01-15T05:51:27;4.98;77.84
68026;SHT31;54819;48.030;14.710;2023-01-15T05:53:58;5.01;77.84
68026;SHT31;54819;48.030;14.710;2023-01-15T05:56:24;5.00;79.32
68026;SHT31;54819;48.030;14.710;2023-01-15T05:58:51;5.01;79.71
68026;SHT31;54819;48.030;14.710;2023-01-15T06:01:19;5.03;80.06
68026;SHT31;54819;48.030;14.710;2023-01-15T06:03:47;5.09;79.38
68026;SHT31;54819;48.030;14.710;2023-01-15T06:06:15;5.14;79.24
68026;SHT31;54819;48.030;14.710;2023-01-15T06:08:44;5.17;79.41
68026;SHT31;54819;48.030;14.710;2023-01-15T06:11:10;5.24;79.12
68026;SHT31;54819;48.030;14.710;2023-01-15T06:13:38;5.32;79.09
68026;SHT31;54819;48.030;14.710;2023-01-15T06:16:05;5.34;79.51
68026;SHT31;54819;48.030;14.710;2023-01-15T06:18:33;5.24;79.99
68026;SHT31;54819;48.030;14.710;2023-01-15T06:21:02;5.22;80.34
68026;SHT31;54819;48.030;14.710;2023-01-15T06:23:32;5.19;80.36
68026;SHT31;54819;48.030;14.710;2023-01-15T06:26:04;5.14;80.58
68026;SHT31;54819;48.030;14.710;2023-01-15T06:28:32;5.12;80.67
68026;SHT31;54819;48.030;14.710;2023-01-15T06:30:59;5.08;80.62
68026;SHT31;54819;48.030;14.710;2023-01-15T06:33:30;5.05;80.75
68026;SHT31;54819;48.030;14.710;2023-01-15T06:35:57;5.01;81.12
68026;SHT31;54819;48.030;14.710;2023-01-15T06:38:24;4.94;80.75
68026;SHT31;54819;48.030;14.710;2023-01-15T06:40:50;4.91;81.02
68026;SHT31;54819;48.030;14.710;2023-01-15T06:43:17;4.84;81.15
68026;SHT31;54819;48.030;14.710;2023-01-15T06:46:02;4.82;81.10
68026;SHT31;54819;48.030;14.710;2023-01-15T06:48:49;4.78;81.49
68026;SHT31;54819;48.030;14.710;2023-01-15T06:51:16;4.79;81.57
68026;SHT31;54819;48.030;14.710;2023-01-15T06:53:45;4.77;81.46
68026;SHT31;54819;48.030;14.710;2023-01-15T06:56:13;4.76;81.23
68026;SHT31;54819;48.030;14.710;2023-01-15T06:58:41;4.77;81.22
68026;SHT31;54819;48.030;14.710;2023-01-15T07:01:12;4.82;81.20
68026;SHT31;54819;48.030;14.710;2023-01-15T07:03:41;4.81;81.11
68026;SHT31;54819;48.030;14.710;2023-01-15T07:06:08;4.80;80.84
68026;SHT31;54819;48.030;14.710;2023-01-15T07:08:38;4.77;80.63
68026;SHT31;54819;48.030;14.710;2023-01-15T07:11:05;4.72;80.70
68026;SHT31;54819;48.030;14.710;2023-01-15T07:13:34;4.66;81.25
68026;SHT31;54819;48.030;14.710;2023-01-15T07:16:02;4.65;81.26
68026;SHT31;54819;48.030;14.710;2023-01-15T07:18:31;4.60;81.57
68026;SHT31;54819;48.030;14.710;2023-01-15T07:20:58;4.56;81.63
68026;SHT31;54819;48.030;14.710;2023-01-15T07:23:26;4.55;81.63
68026;SHT31;54819;48.030;14.710;2023-01-15T07:25:53;4.54;81.63
68026;SHT31;54819;48.030;14.710;2023-01-15T07:28:21;4.54;81.57
68026;SHT31;54819;48.030;14.710;2023-01-15T07:30:48;4.52;81.69
68026;SHT31;54819;48.030;14.710;2023-01-15T07:33:15;4.52;81.92
68026;SHT31;54819;48.030;14.710;2023-01-15T07:35:42;4.56;81.88
68026;SHT31;54819;48.030;14.710;2023-01-15T07:38:09;4.55;81.83
68026;SHT31;54819;48.030;14.710;2023-01-15T07:40:36;4.53;82.09
68026;SHT31;54819;48.030;14.710;2023-01-15T07:43:04;4.50;82.48
68026;SHT31;54819;48.030;14.710;2023-01-15T07:45:49;4.52;82.25
68026;SHT31;54819;48.030;14.710;2023-01-15T07:48:35;4.55;81.97
68026;SHT31;54819;48.030;14.710;2023-01-15T07:51:20;4.59;82.15
68026;SHT31;54819;48.030;14.710;2023-01-15T07:53:47;4.62;82.02
68026;SHT31;54819;48.030;14.710;2023-01-15T07:56:14;4.62;82.14
68026;SHT31;54819;48.030;14.710;2023-01-15T07:58:41;4.57;82.42
68026;SHT31;54819;48.030;14.710;2023-01-15T08:01:07;4.58;82.11
68026;SHT31;54819;48.030;14.710;2023-01-15T08:03:34;4.59;82.11
68026;SHT31;54819;48.030;14.710;2023-01-15T08:06:01;4.60;82.58
68026;SHT31;54819;48.030;14.710;2023-01-15T08:08:28;4.57;82.49
68026;SHT31;54819;48.030;14.710;2023-01-15T08:10:59;4.57;82.86
68026;SHT31;54819;48.030;14.710;2023-01-15T08:13:46;4.58;82.64
68026;SHT31;54819;48.030;14.710;2023-01-15T08:16:33;4.64;82.98
68026;SHT31;54819;48.030;14.710;2023-01-15T08:19:01;4.70;82.75
68026;SHT31;54819;48.030;14.710;2023-01-15T08:21:28;4.75;82.47
68026;SHT31;54819;48.030;14.710;2023-01-15T08:23:55;4.87;82.32
68026;SHT31;54819;48.030;14.710;2023-01-15T08:26:21;4.96;82.37
68026;SHT31;54819;48.030;14.710;2023-01-15T08:28:48;5.02;82.46
68026;SHT31;54819;48.030;14.710;2023-01-15T08:31:15;5.07;82.41
68026;SHT31;54819;48.030;14.710;2023-01-15T08:33:42;5.14;82.14
68026;SHT31;54819;48.030;14.710;2023-01-15T08:36:08;5.26;82.13
68026;SHT31;54819;48.030;14.710;2023-01-15T08:38:35;5.35;81.77
68026;SHT31;54819;48.030;14.710;2023-01-15T08:41:02;5.46;81.68
68026;SHT31;54819;48.030;14.710;2023-01-15T08:43:30;5.54;81.62
68026;SHT31;54819;48.030;14.710;2023-01-15T08:46:02;5.64;81.32
68026;SHT31;54819;48.030;14.710;2023-01-15T08:48:31;5.70;81.19
68026;SHT31;54819;48.030;14.710;2023-01-15T08:51:02;5.72;80.97
68026;SHT31;54819;48.030;14.710;2023-01-15T08:53:30;5.80;80.83
68026;SHT31;54819;48.030;14.710;2023-01-15T08:55:56;5.85;80.68
68026;SHT31;54819;48.030;14.710;2023-01-15T08:58:25;5.91;80.55
68026;SHT31;54819;48.030;14.710;2023-01-15T09:00:54;5.95;80.37
68026;SHT31;54819;48.030;14.710;2023-01-15T09:03:20;5.99;80.40
68026;SHT31;54819;48.030;14.710;2023-01-15T09:05:47;6.03;80.38
68026;SHT31;54819;48.030;14.710;2023-01-15T09:08:14;6.09;80.19
68026;SHT31;54819;48.030;14.710;2023-01-15T09:10:41;6.11;79.85
68026;SHT31;54819;48.030;14.710;2023-01-15T09:13:07;6.09;79.74
68026;SHT31;54819;48.030;14.710;2023-01-15T09:15:34;6.12;79.70
68026;SHT31;54819;48.030;14.710;2023-01-15T09:18:01;6.16;79.57
68026;SHT31;54819;48.030;14.710;2023-01-15T09:20:28;6.21;79.47
68026;SHT31;54819;48.030;14.710;2023-01-15T09:22:54;6.26;79.39
68026;SHT31;54819;48.030;14.710;2023-01-15T09:25:21;6.32;79.42
68026;SHT31;54819;48.030;14.710;2023-01-15T09:27:49;6.36;79.48
68026;SHT31;54819;48.030;14.710;2023-01-15T09:30:17;6.39;79.42
68026;SHT31;54819;48.030;14.710;2023-01-15T09:32:46;6.41;79.26
68026;SHT31;54819;48.030;14.710;2023-01-15T09:35:13;6.39;79.28
68026;SHT31;54819;48.030;14.710;2023-01-15T09:37:40;6.39;79.26
68026;SHT31;54819;48.030;14.710;2023-01-15T09:40:10;6.32;79.31
68026;SHT31;54819;48.030;14.710;2023-01-15T09:42:57;6.33;79.37
68026;SHT31;54819;48.030;14.710;2023-01-15T09:53:58;6.30;79.55
68026;SHT31;54819;48.030;14.710;2023-01-15T09:56:43;6.33;79.48
68026;SHT31;54819;48.030;14.710;2023-01-15T09:59:15;6.29;79.91
68026;SHT31;54819;48.030;14.710;2023-01-15T10:01:54;6.29;79.92
68026;SHT31;54819;48.030;14.710;2023-01-15T10:04:30;6.32;79.75
68026;SHT31;54819;48.030;14.710;2023-01-15T10:07:02;6.31;79.79
68026;SHT31;54819;48.030;14.710;2023-01-15T10:09:53;6.32;79.73
68026;SHT31;54819;48.030;14.710;2023-01-15T10:12:25;6.35;79.87
68026;SHT31;54819;48.030;14.710;2023-01-15T10:17:40;6.38;79.78
68026;SHT31;54819;48.030;14.710;2023-01-15T10:20:13;6.36;79.82
68026;SHT31;54819;48.030;14.710;2023-01-15T10:25:49;6.34;80.27
68026;SHT31;54819;48.030;14.710;2023-01-15T10:28:30;6.41;79.70
68026;SHT31;54819;48.030;14.710;2023-01-15T10:31:05;6.49;78.89
68026;SHT31;54819;48.030;14.710;2023-01-15T10:33:46;6.54;79.00
68026;SHT31;54819;48.030;14.710;2023-01-15T10:36:17;6.66;79.12
68026;SHT31;54819;48.030;14.710;2023-01-15T10:38:53;6.75;79.36
68026;SHT31;54819;48.030;14.710;2023-01-15T10:46:57;6.92;78.67
68026;SHT31;54819;48.030;14.710;2023-01-15T10:49:27;6.91;78.57
68026;SHT31;54819;48.030;14.710;2023-01-15T10:51:56;6.93;77.92
68026;SHT31;54819;48.030;14.710;2023-01-15T10:54:30;6.87;76.94
68026;SHT31;54819;48.030;14.710;2023-01-15T10:57:05;6.80;76.74
68026;SHT31;54819;48.030;14.710;2023-01-15T11:02:27;6.76;76.89
68026;SHT31;54819;48.030;14.710;2023-01-15T11:04:58;6.75;76.89
68026;SHT31;54819;48.030;14.710;2023-01-15T11:07:26;6.74;76.67
68026;SHT31;54819;48.030;14.710;2023-01-15T11:10:02;6.69;76.61
68026;SHT31;54819;48.030;14.710;2023-01-15T11:12:30;6.65;77.03
68026;SHT31;54819;48.030;14.710;2023-01-15T11:15:21;6.62;77.69
68026;SHT31;54819;48.030;14.710;2023-01-15T11:18:13;6.66;78.33
68026;SHT31;54819;48.030;14.710;2023-01-15T11:21:01;6.69;78.17
68026;SHT31;54819;48.030;14.710;2023-01-15T11:23:29;6.74;78.40
68026;SHT31;54819;48.030;14.710;2023-01-15T11:26:01;6.77;78.75
68026;SHT31;54819;48.030;14.710;2023-01-15T11:28:38;6.85;78.59
68026;SHT31;54819;48.030;14.710;2023-01-15T11:31:10;6.92;78.76
68026;SHT31;54819;48.030;14.710;2023-01-15T11:33:38;6.89;79.87
68026;SHT31;54819;48.030;14.710;2023-01-15T11:36:07;6.87;79.69
68026;SHT31;54819;48.030;14.710;2023-01-15T11:38:54;6.85;79.76
68026;SHT31;54819;48.030;14.710;2023-01-15T11:44:12;6.80;79.37
68026;SHT31;54819;48.030;14.710;2023-01-15T11:46:58;6.70;79.42
68026;SHT31;54819;48.030;14.710;2023-01-15T11:49:52;6.60;80.05
68026;SHT31;54819;48.030;14.710;2023-01-15T11:52:43;6.48;80.46
68026;SHT31;54819;48.030;14.710;2023-01-15T11:55:14;6.47;80.34
68026;SHT31;54819;48.030;14.710;2023-01-15T11:57:44;6.44;80.14
68026;SHT31;54819;48.030;14.710;2023-01-15T12:00:22;6.45;80.22
68026;SHT31;54819;48.030;14.710;2023-01-15T12:02:52;6.49;80.08
68026;SHT31;54819;48.030;14.710;2023-01-15T12:05:23;6.49;80.10
68026;SHT31;54819;48.030;14.710;2023-01-15T12:08:00;6.45;80.41
68026;SHT31;54819;48.030;14.710;2023-01-15T12:10:45;6.41;80.61
68026;SHT31;54819;48.030;14.710;2023-01-15T12:16:32;6.42;81.38
68026;SHT31;54819;48.030;14.710;2023-01-15T12:19:51;6.40;81.79
68026;SHT31;54819;48.030;14.710;2023-01-15T12:22:31;6.36;82.06
68026;SHT31;54819;48.030;14.710;2023-01-15T12:28:01;6.30;81.99
68026;SHT31;54819;48.030;14.710;2023-01-15T12:33:48;6.25;82.43
68026;SHT31;54819;48.030;14.710;2023-01-15T12:39:03;6.27;83.70
68026;SHT31;54819;48.030;14.710;2023-01-15T12:41:38;6.30;84.02
68026;SHT31;54819;48.030;14.710;2023-01-15T12:50:37;6.31;84.88
68026;SHT31;54819;48.030;14.710;2023-01-15T13:01:37;6.84;83.67
68026;SHT31;54819;48.030;14.710;2023-01-15T13:04:14;6.84;83.80
68026;SHT31;54819;48.030;14.710;2023-01-15T13:06:45;6.86;83.98
68026;SHT31;54819;48.030;14.710;2023-01-15T13:09:19;6.86;84.31
68026;SHT31;54819;48.030;14.710;2023-01-15T13:11:51;6.86;83.71
68026;SHT31;54819;48.030;14.710;2023-01-15T13:14:17;6.80;84.79
68026;SHT31;54819;48.030;14.710;2023-01-15T13:19:53;6.77;84.25
68026;SHT31;54819;48.030;14.710;2023-01-15T13:22:28;6.75;83.83
68026;SHT31;54819;48.030;14.710;2023-01-15T13:27:49;6.57;84.84
68026;SHT31;54819;48.030;14.710;2023-01-15T13:33:27;6.47;83.80
68026;SHT31;54819;48.030;14.710;2023-01-15T13:38:43;6.38;84.11
68026;SHT31;54819;48.030;14.710;2023-01-15T13:41:18;6.39;84.17
68026;SHT31;54819;48.030;14.710;2023-01-15T13:44:27;6.39;84.51
68026;SHT31;54819;48.030;14.710;2023-01-15T13:49:33;6.39;85.24
68026;SHT31;54819;48.030;14.710;2023-01-15T13:52:03;6.44;85.77
68026;SHT31;54819;48.030;14.710;2023-01-15T13:54:33;6.56;86.86
68026;SHT31;54819;48.030;14.710;2023-01-15T13:57:25;6.68;87.35
68026;SHT31;54819;48.030;14.710;2023-01-15T14:00:00;6.84;87.67
68026;SHT31;54819;48.030;14.710;2023-01-15T14:02:37;6.92;87.84
68026;SHT31;54819;48.030;14.710;2023-01-15T14:05:23;6.98;87.97
68026;SHT31;54819;48.030;14.710;2023-01-15T14:07:53;7.01;88.29
68026;SHT31;54819;48.030;14.710;2023-01-15T14:10:25;7.06;87.89
68026;SHT31;54819;48.030;14.710;2023-01-15T14:13:04;7.07;88.06
68026;SHT31;54819;48.030;14.710;2023-01-15T14:37:24;6.94;88.40
68026;SHT31;54819;48.030;14.710;2023-01-15T14:39:51;6.97;88.22
68026;SHT31;54819;48.030;14.710;2023-01-15T14:47:47;7.04;88.04
68026;SHT31;54819;48.030;14.710;2023-01-15T14:50:37;7.03;88.01
68026;SHT31;54819;48.030;14.710;2023-01-15T15:01:35;7.12;85.70
68026;SHT31;54819;48.030;14.710;2023-01-15T15:04:04;7.08;85.24
68026;SHT31;54819;48.030;14.710;2023-01-15T15:07:02;7.02;85.20
68026;SHT31;54819;48.030;14.710;2023-01-15T15:09:40;6.95;84.94
68026;SHT31;54819;48.030;14.710;2023-01-15T15:14:59;6.90;85.11
68026;SHT31;54819;48.030;14.710;2023-01-15T15:20:07;6.82;84.98
68026;SHT31;54819;48.030;14.710;2023-01-15T15:23:03;6.79;85.28
68026;SHT31;54819;48.030;14.710;2023-01-15T15:25:37;6.77;85.30
68026;SHT31;54819;48.030;14.710;2023-01-15T15:28:07;6.75;85.70
68026;SHT31;54819;48.030;14.710;2023-01-15T15:30:39;6.72;85.66
68026;SHT31;54819;48.030;14.710;2023-01-15T15:33:13;6.74;85.65
68026;SHT31;54819;48.030;14.710;2023-01-15T15:35:47;6.74;85.87
68026;SHT31;54819;48.030;14.710;2023-01-15T15:38:18;6.74;85.95
68026;SHT31;54819;48.030;14.710;2023-01-15T15:40:49;6.74;85.94
68026;SHT31;54819;48.030;14.710;2023-01-15T15:46:23;6.71;84.81
68026;SHT31;54819;48.030;14.710;2023-01-15T15:49:11;6.68;84.07
68026;SHT31;54819;48.030;14.710;2023-01-15T15:54:15;6.57;84.07
68026;SHT31;54819;48.030;14.710;2023-01-15T15:57:28;6.53;84.18
68026;SHT31;54819;48.030;14.710;2023-01-15T15:59:33;6.49;84.19
68026;SHT31;54819;48.030;14.710;2023-01-15T16:02:13;6.43;84.18
68026;SHT31;54819;48.030;14.710;2023-01-15T16:04:54;6.41;84.05
68026;SHT31;54819;48.030;14.710;2023-01-15T16:10:03;6.38;84.03
68026;SHT31;54819;48.030;14.710;2023-01-15T16:12:33;6.38;84.08
68026;SHT31;54819;48.030;14.710;2023-01-15T16:15:11;6.36;83.84
68026;SHT31;54819;48.030;14.710;2023-01-15T16:18:00;6.33;83.70
68026;SHT31;54819;48.030;14.710;2023-01-15T16:20:28;6.31;83.84
68026;SHT31;54819;48.030;14.710;2023-01-15T16:25:27;6.26;83.37
68026;SHT31;54819;48.030;14.710;2023-01-15T16:27:58;6.22;82.92
68026;SHT31;54819;48.030;14.710;2023-01-15T16:30:29;6.18;83.22
68026;SHT31;54819;48.030;14.710;2023-01-15T16:33:01;6.15;83.25
68026;SHT31;54819;48.030;14.710;2023-01-15T16:35:34;6.10;83.41
68026;SHT31;54819;48.030;14.710;2023-01-15T16:38:02;6.07;83.56
68026;SHT31;54819;48.030;14.710;2023-01-15T16:40:34;6.04;83.82
68026;SHT31;54819;48.030;14.710;2023-01-15T16:43:09;6.01;83.69
68026;SHT31;54819;48.030;14.710;2023-01-15T16:46:01;5.99;83.91
68026;SHT31;54819;48.030;14.710;2023-01-15T16:48:28;5.94;84.26
68026;SHT31;54819;48.030;14.710;2023-01-15T16:54:01;5.96;84.26
68026;SHT31;54819;48.030;14.710;2023-01-15T16:59:03;5.97;84.16
68026;SHT31;54819;48.030;14.710;2023-01-15T17:01:46;6.00;84.25
68026;SHT31;54819;48.030;14.710;2023-01-15T17:04:26;6.05;84.25
68026;SHT31;54819;48.030;14.710;2023-01-15T17:06:58;6.09;84.22
68026;SHT31;54819;48.030;14.710;2023-01-15T17:09:32;6.11;84.23
68026;SHT31;54819;48.030;14.710;2023-01-15T17:12:03;6.12;84.22
68026;SHT31;54819;48.030;14.710;2023-01-15T17:14:34;6.12;84.04
68026;SHT31;54819;48.030;14.710;2023-01-15T17:19:50;6.09;83.81
68026;SHT31;54819;48.030;14.710;2023-01-15T17:22:25;6.07;83.86
68026;SHT31;54819;48.030;14.710;2023-01-15T17:24:57;6.06;84.02
68026;SHT31;54819;48.030;14.710;2023-01-15T17:27:27;6.02;84.31
68026;SHT31;54819;48.030;14.710;2023-01-15T17:29:56;5.93;84.52
68026;SHT31;54819;48.030;14.710;2023-01-15T17:32:30;5.89;84.81
68026;SHT31;54819;48.030;14.710;2023-01-15T17:35:01;5.89;84.73
68026;SHT31;54819;48.030;14.710;2023-01-15T17:37:29;5.89;84.76
68026;SHT31;54819;48.030;14.710;2023-01-15T17:39:55;5.87;84.75
68026;SHT31;54819;48.030;14.710;2023-01-15T17:42:23;5.86;84.79
68026;SHT31;54819;48.030;14.710;2023-01-15T17:44:49;5.84;84.89
68026;SHT31;54819;48.030;14.710;2023-01-15T17:47:16;5.81;85.13
68026;SHT31;54819;48.030;14.710;2023-01-15T17:49:43;5.79;85.42
68026;SHT31;54819;48.030;14.710;2023-01-15T17:52:15;5.75;85.18
68026;SHT31;54819;48.030;14.710;2023-01-15T17:54:44;5.75;85.08
68026;SHT31;54819;48.030;14.710;2023-01-15T17:57:30;5.74;85.02
68026;SHT31;54819;48.030;14.710;2023-01-15T18:00:16;5.75;85.22
68026;SHT31;54819;48.030;14.710;2023-01-15T18:03:02;5.71;85.14
68026;SHT31;54819;48.030;14.710;2023-01-15T18:05:49;5.76;84.74
68026;SHT31;54819;48.030;14.710;2023-01-15T18:08:17;5.77;84.66
68026;SHT31;54819;48.030;14.710;2023-01-15T18:10:44;5.78;84.51
68026;SHT31;54819;48.030;14.710;2023-01-15T18:13:12;5.78;84.58
68026;SHT31;54819;48.030;14.710;2023-01-15T18:15:39;5.75;84.54
68026;SHT31;54819;48.030;14.710;2023-01-15T18:18:06;5.73;84.50
68026;SHT31;54819;48.030;14.710;2023-01-15T18:20:33;5.70;84.66
68026;SHT31;54819;48.030;14.710;2023-01-15T18:23:01;5.69;84.71
68026;SHT31;54819;48.030;14.710;2023-01-15T18:25:27;5.68;84.65